createdAt,value
2023-05-06T00:01:45.359Z,72.47
2023-05-06T00:04:20.343Z,73.17
2023-05-06T00:06:56.943Z,74.46
2023-05-06T00:09:31.633Z,74.78
2023-05-06T00:12:06.742Z,75.23
2023-05-06T00:14:41.672Z,75.32
2023-05-06T00:17:16.125Z,75.62
2023-05-06T00:19:52.514Z,75.87
2023-05-06T00:22:28.478Z,76.21
2023-05-06T00:25:03.481Z,76.03
2023-05-06T00:27:37.848Z,75.69
2023-05-06T00:30:13.636Z,75.61
2023-05-06T00:32:48.086Z,75.54
2023-05-06T00:35:22.789Z,74.97
2023-05-06T00:37:59.793Z,74.90
2023-05-06T00:40:34.539Z,74.37
2023-05-06T00:43:09.027Z,74.46
2023-05-06T00:45:44.089Z,74.93
2023-05-06T00:48:19.553Z,75.08
2023-05-06T00:50:54.913Z,74.87
2023-05-06T00:53:30.792Z,74.94
2023-05-06T00:56:05.711Z,75.06
2023-05-06T00:58:40.575Z,75.43
2023-05-06T01:01:15.818Z,75.22
2023-05-06T01:03:50.297Z,75.36
2023-05-06T01:06:31.150Z,75.55
2023-05-06T01:09:19.814Z,75.85
2023-05-06T01:11:59.900Z,75.93
2023-05-06T01:14:41.199Z,75.69
2023-05-06T01:17:18.001Z,75.24
2023-05-06T01:19:54.467Z,75.37
2023-05-06T01:22:30.546Z,75.05
2023-05-06T01:25:06.879Z,75.44
2023-05-06T01:27:41.693Z,75.38
2023-05-06T01:30:18.753Z,75.31
2023-05-06T01:33:02.284Z,74.67
2023-05-06T01:35:47.863Z,74.59
2023-05-06T01:38:31.356Z,74.31
2023-05-06T01:41:07.561Z,74.51
2023-05-06T01:43:45.826Z,75.01
2023-05-06T01:46:23.020Z,75.11
2023-05-06T01:49:01.376Z,74.84
2023-05-06T01:51:35.931Z,74.99
2023-05-06T01:54:10.606Z,74.58
2023-05-06T01:56:46.711Z,74.92
2023-05-06T01:59:22.513Z,74.70
2023-05-06T02:01:56.894Z,74.84
2023-05-06T02:04:31.565Z,75.94
2023-05-06T02:07:06.019Z,76.16
2023-05-06T02:09:40.822Z,75.54
2023-05-06T02:12:16.465Z,75.67
2023-05-06T02:14:51.049Z,75.17
2023-05-06T02:17:25.524Z,74.71
2023-05-06T02:20:00.830Z,74.73
2023-05-06T02:22:35.330Z,74.25
2023-05-06T02:25:10.986Z,74.16
2023-05-06T02:27:47.340Z,74.85
2023-05-06T02:30:22.043Z,74.93
2023-05-06T02:32:56.444Z,74.96
2023-05-06T02:35:31.116Z,75.71
2023-05-06T02:38:05.534Z,75.49
2023-05-06T02:40:41.603Z,75.51
2023-05-06T02:43:17.311Z,75.35
2023-05-06T02:45:52.062Z,75.72
2023-05-06T02:48:26.507Z,76.20
2023-05-06T02:51:02.152Z,75.89
2023-05-06T02:53:36.579Z,75.68
2023-05-06T02:56:11.255Z,75.53
2023-05-06T02:58:46.950Z,75.28
2023-05-06T03:01:21.936Z,75.12
2023-05-06T03:03:56.536Z,75.08
2023-05-06T03:06:31.725Z,75.36
2023-05-06T03:09:06.580Z,75.72
2023-05-06T03:11:41.263Z,75.72
2023-05-06T03:14:17.896Z,75.12
2023-05-06T03:16:52.819Z,74.69
2023-05-06T03:19:27.343Z,75.79
2023-05-06T03:22:02.007Z,76.41
2023-05-06T03:24:37.216Z,75.72
2023-05-06T03:27:12.536Z,75.75
2023-05-06T03:29:48.720Z,75.77
2023-05-06T03:32:23.986Z,74.86
2023-05-06T03:34:58.674Z,75.02
2023-05-06T03:37:34.218Z,75.63
2023-05-06T03:40:10.368Z,76.05
2023-05-06T03:42:46.207Z,76.14
2023-05-06T03:45:25.212Z,76.00
2023-05-06T03:48:00.804Z,76.25
2023-05-06T03:50:36.195Z,76.80
2023-05-06T03:53:11.061Z,76.17
2023-05-06T03:55:46.072Z,75.87
2023-05-06T03:58:20.880Z,75.51
2023-05-06T04:00:56.784Z,76.40
2023-05-06T04:03:32.397Z,76.49
2023-05-06T04:06:07.649Z,76.04
2023-05-06T04:08:42.317Z,75.78
2023-05-06T04:11:16.966Z,75.39
2023-05-06T04:13:53.552Z,74.86
2023-05-06T04:16:29.686Z,76.29
2023-05-06T04:19:06.509Z,77.25
2023-05-06T04:21:42.091Z,76.83
2023-05-06T04:24:17.214Z,76.44
2023-05-06T04:26:51.952Z,75.28
2023-05-06T04:29:27.541Z,75.76
2023-05-06T04:32:05.010Z,76.28
2023-05-06T04:34:40.771Z,76.81
2023-05-06T04:37:15.932Z,76.39
2023-05-06T04:39:50.848Z,75.84
2023-05-06T04:42:26.449Z,76.53
2023-05-06T04:45:02.205Z,76.90
2023-05-06T04:47:38.743Z,76.48
2023-05-06T04:50:13.700Z,76.23
2023-05-06T04:52:48.493Z,75.72
2023-05-06T04:55:23.415Z,75.78
2023-05-06T04:57:58.356Z,75.49
2023-05-06T05:00:33.256Z,75.21
2023-05-06T05:03:09.755Z,74.82
2023-05-06T05:05:44.581Z,75.01
2023-05-06T05:08:21.511Z,74.56
2023-05-06T05:10:56.399Z,74.45
2023-05-06T05:13:31.067Z,75.20
2023-05-06T05:16:06.680Z,74.50
2023-05-06T05:18:43.059Z,74.07
2023-05-06T05:21:18.694Z,74.43
2023-05-06T05:23:53.011Z,74.23
2023-05-06T05:26:27.773Z,74.00
2023-05-06T05:29:02.463Z,72.79
2023-05-06T05:31:39.091Z,73.59
2023-05-06T05:34:14.959Z,73.61
2023-05-06T05:36:49.926Z,73.78
2023-05-06T05:39:24.444Z,74.62
2023-05-06T05:41:59.224Z,74.04
2023-05-06T05:44:34.603Z,73.52
2023-05-06T05:47:09.978Z,74.25
2023-05-06T05:49:46.394Z,73.00
2023-05-06T05:52:21.412Z,72.80
2023-05-06T05:54:55.726Z,72.84
2023-05-06T05:57:30.962Z,73.16
2023-05-06T06:00:05.941Z,73.09
2023-05-06T06:02:57.078Z,71.44
2023-05-06T06:05:32.274Z,71.44
2023-05-06T06:08:07.141Z,72.92
2023-05-06T06:10:42.357Z,73.52
2023-05-06T06:13:17.422Z,72.36
2023-05-06T06:15:52.382Z,71.41
2023-05-06T06:18:29.148Z,70.00
2023-05-06T06:21:06.217Z,70.32
2023-05-06T06:23:40.964Z,70.65
2023-05-06T06:26:15.732Z,78.30
2023-05-06T06:28:50.388Z,68.46
2023-05-06T06:31:25.197Z,68.97
2023-05-06T06:34:05.378Z,69.84
2023-05-06T06:36:45.252Z,69.55
2023-05-06T06:39:19.623Z,68.67
2023-05-06T06:41:58.255Z,68.28
2023-05-06T06:44:32.675Z,67.19
2023-05-06T06:47:07.365Z,66.37
2023-05-06T06:49:43.123Z,66.36
2023-05-06T06:52:17.815Z,67.37
2023-05-06T06:54:52.135Z,67.47
2023-05-06T14:03:15.141Z,44.93
2023-05-06T14:05:50.453Z,44.93
2023-05-06T14:08:24.756Z,45.13
2023-05-06T14:10:59.339Z,44.71
2023-05-06T14:13:35.361Z,45.40
2023-05-06T14:16:10.032Z,44.72
2023-05-06T14:18:46.111Z,45.09
2023-05-06T14:21:20.972Z,44.97
2023-05-06T14:23:55.418Z,45.40
2023-05-06T14:26:29.982Z,46.18
2023-05-06T14:29:04.229Z,45.06
2023-05-06T14:31:38.862Z,45.01
2023-05-06T14:34:14.879Z,45.25
2023-05-06T14:36:49.612Z,51.08
2023-05-06T14:39:23.920Z,53.72
2023-05-06T14:41:59.377Z,54.89
2023-05-06T14:44:33.670Z,55.66
2023-05-06T14:47:08.316Z,57.36
2023-05-06T14:49:44.264Z,57.84
2023-05-06T14:52:19.173Z,58.26
2023-05-06T14:54:53.431Z,56.43
2023-05-06T14:57:28.048Z,56.13
2023-05-06T15:00:04.758Z,56.62
2023-05-06T15:02:40.873Z,57.43
2023-05-06T15:05:16.717Z,56.62
2023-05-06T15:07:51.648Z,56.70
2023-05-06T15:10:26.099Z,57.42
2023-05-06T15:13:00.832Z,58.57
2023-05-06T15:15:35.144Z,58.66
2023-05-06T15:18:09.807Z,59.02
2023-05-06T15:20:45.590Z,58.69
2023-05-06T15:23:21.667Z,57.99
2023-05-06T15:25:56.028Z,57.10
2023-05-06T15:28:30.688Z,56.54
2023-05-06T15:31:05.149Z,55.09
2023-05-06T15:33:39.765Z,54.83
2023-05-06T15:36:15.528Z,52.47
2023-05-06T15:39:00.524Z,54.45
2023-05-06T15:41:37.535Z,55.45
2023-05-06T15:44:15.969Z,55.72
2023-05-06T15:46:50.735Z,55.72
2023-05-06T15:49:49.383Z,57.58
2023-05-06T15:52:21.356Z,56.54
2023-05-06T15:54:59.453Z,55.91
2023-05-06T15:57:34.197Z,56.15
2023-05-06T16:00:10.404Z,57.26
2023-05-06T16:02:45.612Z,58.06
2023-05-06T16:05:20.064Z,58.19
2023-05-06T16:07:56.792Z,58.33
2023-05-06T16:10:31.262Z,58.34
2023-05-06T16:13:05.984Z,57.88
2023-05-06T16:15:40.380Z,58.22
2023-05-06T16:18:15.007Z,58.68
2023-05-06T16:20:49.390Z,59.30
2023-05-06T16:23:26.382Z,59.04
2023-05-06T16:26:01.083Z,58.60
2023-05-06T16:28:36.622Z,58.36
2023-05-06T16:31:12.297Z,58.18
2023-05-06T16:33:46.960Z,57.69
2023-05-06T16:36:21.274Z,57.67
2023-05-06T16:38:57.409Z,57.64
2023-05-06T16:41:31.808Z,58.03
2023-05-06T16:44:06.871Z,58.82
2023-05-06T16:46:41.241Z,59.30
2023-05-06T16:49:16.196Z,59.41
2023-05-06T16:51:50.559Z,59.14
2023-05-06T16:54:26.995Z,59.70
2023-05-06T16:57:01.658Z,60.17
2023-05-06T16:59:36.442Z,60.03
2023-05-06T17:02:11.060Z,59.81
2023-05-06T17:04:45.883Z,60.39
2023-05-06T17:07:21.355Z,60.47
2023-05-06T17:09:57.550Z,60.83
2023-05-06T17:12:32.902Z,60.77
2023-05-06T17:15:09.738Z,61.31
2023-05-06T17:17:44.199Z,61.66
2023-05-06T17:20:20.111Z,62.09
2023-05-06T17:22:54.745Z,62.18
2023-05-06T17:25:30.826Z,62.57
2023-05-06T17:28:05.549Z,62.80
2023-05-06T17:30:40.173Z,62.53
2023-05-06T17:33:14.551Z,62.76
2023-05-06T17:35:49.299Z,62.90
2023-05-06T17:38:23.721Z,62.84
2023-05-06T17:41:00.041Z,63.08
2023-05-06T17:43:34.796Z,62.50
2023-05-06T17:46:09.609Z,63.27
2023-05-06T17:48:44.173Z,63.66
2023-05-06T17:51:20.015Z,63.91
2023-05-06T17:53:54.771Z,63.97
2023-05-06T17:56:30.848Z,64.57
2023-05-06T17:59:05.689Z,65.06
2023-05-06T18:01:40.440Z,65.54
2023-05-06T18:04:15.375Z,65.67
2023-05-06T18:06:49.711Z,65.56
2023-05-06T18:09:24.380Z,65.50
2023-05-06T18:12:00.151Z,65.48
2023-05-06T18:14:35.276Z,66.40
2023-05-06T18:17:09.531Z,66.47
2023-05-06T18:19:44.352Z,67.01
2023-05-06T18:22:18.651Z,67.47
2023-05-06T18:24:55.444Z,67.48
2023-05-06T18:27:32.473Z,67.97
2023-05-06T18:30:09.095Z,69.08
2023-05-06T18:32:43.474Z,69.24
2023-05-06T18:35:18.268Z,68.43
2023-05-06T18:37:52.677Z,68.40
2023-05-06T18:40:27.446Z,68.58
2023-05-06T18:43:03.196Z,68.79
2023-05-06T18:45:37.890Z,69.20
2023-05-06T18:48:12.557Z,68.79
2023-05-06T18:50:47.457Z,69.00
2023-05-06T18:53:22.336Z,69.16
2023-05-06T18:55:57.144Z,69.25
2023-05-06T18:58:33.096Z,69.02
2023-05-06T19:01:08.925Z,69.22
2023-05-06T19:03:43.539Z,76.94
2023-05-06T19:06:18.461Z,77.28
2023-05-06T19:08:53.835Z,75.75
2023-05-06T19:11:28.622Z,68.83
2023-05-06T19:14:04.474Z,68.54
2023-05-06T19:16:39.195Z,68.78
2023-05-06T19:19:13.726Z,69.13
2023-05-06T19:21:48.310Z,69.40
2023-05-06T19:24:22.788Z,70.14
2023-05-06T19:26:57.706Z,70.47
2023-05-06T19:29:33.806Z,70.05
2023-05-06T19:32:08.806Z,69.86
2023-05-06T19:34:43.217Z,69.80
2023-05-06T19:37:17.795Z,70.27
2023-05-06T19:39:52.544Z,69.62
2023-05-06T19:42:27.357Z,70.39
2023-05-06T19:45:08.438Z,73.03
2023-05-06T19:47:43.360Z,75.11
2023-05-06T19:50:17.779Z,76.13
2023-05-06T19:52:52.371Z,75.31
2023-05-06T19:55:26.681Z,74.57
2023-05-06T19:58:02.336Z,74.59
2023-05-06T20:00:38.740Z,74.16
2023-05-06T20:03:13.599Z,73.62
2023-05-06T20:05:48.220Z,73.18
2023-05-06T20:08:24.598Z,73.74
2023-05-06T20:10:59.078Z,74.68
2023-05-06T20:13:34.347Z,74.99
2023-05-06T20:16:10.230Z,74.02
2023-05-06T20:18:45.304Z,74.28
2023-05-06T20:21:19.850Z,73.87
2023-05-06T20:23:54.857Z,73.84
2023-05-06T20:26:29.313Z,74.18
2023-05-06T20:29:04.154Z,74.55
2023-05-06T20:31:40.032Z,79.70
2023-05-06T20:34:15.016Z,73.50
2023-05-06T20:36:50.027Z,73.23
2023-05-06T20:39:24.767Z,72.92
2023-05-06T20:41:59.126Z,73.11
2023-05-06T20:44:33.811Z,73.42
2023-05-06T20:47:12.506Z,74.01
2023-05-06T20:49:47.212Z,74.62
2023-05-06T20:52:22.142Z,75.20
2023-05-06T20:54:56.853Z,75.44
2023-05-06T20:57:31.198Z,75.21
2023-05-06T21:00:07.962Z,75.06
2023-05-06T21:02:43.839Z,74.42
2023-05-06T21:05:18.669Z,74.54
2023-05-06T21:07:53.132Z,74.86
2023-05-06T21:10:27.753Z,74.52
2023-05-06T21:13:02.081Z,74.15
2023-05-06T21:15:37.800Z,74.02
2023-05-06T21:18:14.015Z,74.29
2023-05-06T21:20:49.062Z,75.31
2023-05-06T21:23:23.646Z,75.28
2023-05-06T21:25:59.458Z,75.48
2023-05-06T21:28:34.440Z,76.09
2023-05-06T21:31:09.297Z,75.38
2023-05-06T21:33:45.373Z,75.50
2023-05-06T21:36:20.060Z,78.10
2023-05-06T21:39:01.721Z,81.79
2023-05-06T21:41:36.705Z,81.29
2023-05-06T21:44:11.456Z,74.94
2023-05-06T21:46:46.129Z,74.71
2023-05-06T21:49:22.898Z,75.07
2023-05-06T21:51:57.656Z,76.67
2023-05-06T21:54:32.322Z,77.72
2023-05-06T21:57:08.277Z,77.92
2023-05-06T21:59:42.650Z,77.99
2023-05-06T22:02:58.332Z,76.68
2023-05-06T22:05:33.443Z,76.68
2023-05-06T22:08:07.833Z,77.98
2023-05-06T22:10:42.553Z,77.23
2023-05-06T22:13:17.045Z,76.83
